Terminal Aerodrome Forecast
Issued by NWS Sioux Falls, SD

Home | Current Version | Previous Version | Graphics & Text | Print | Product List | Glossary On
Versions: 1 2 3 4 5 6 7 8 9 10 11 12 13
000
FTUS43 KFSD 281739
TAFFSD
TAF
KFSD 281739Z 2818/0118 20017G24KT P6SM SCT035
      TEMPO 2819/2822 BKN035
     FM010000 18007KT P6SM SCT035
     FM010600 27005KT P6SM SCT035 SCT100
     FM011200 27009KT P6SM SCT035 BKN100=

USA.gov is the U.S. government's official web portal to all federal, state and local government web resources and services.